Time;durP1;ratioP1;P1;durP2;ratioP2;P2;SDS_P1;SDS_P2;PMS_P1;PMS_P2;Temp;Humidity;BMP_temperature;BMP_pressure;BME280_temperature;BME280_humidity;BME280_pressure;Samples;Min_cycle;Max_cycle;Signal;HPM_P1;HPM_P2
2022/06/08 00:00:50;;;;;;;20.87;18.70;;;14.30;99.90;;;;;;5067506;28;20500;-66
2022/06/08 00:03:21;;;;;;;23.10;20.90;;;14.20;99.90;;;;;;5072576;28;20470;-66
2022/06/08 00:05:50;;;;;;;22.70;20.80;;;14.30;99.90;;;;;;5063931;28;20482;-65
2022/06/08 00:08:18;;;;;;;21.37;19.77;;;14.30;99.90;;;;;;5069036;28;20463;-65
2022/06/08 00:10:45;;;;;;;24.87;22.30;;;14.30;99.90;;;;;;5073133;28;20511;-66
2022/06/08 00:13:12;;;;;;;22.97;20.83;;;14.30;99.90;;;;;;5070186;28;21317;-66
2022/06/08 00:15:39;;;;;;;20.10;18.73;;;14.30;99.90;;;;;;5073624;28;20471;-66
2022/06/08 00:18:07;;;;;;;18.80;17.40;;;14.30;99.90;;;;;;5071777;28;20466;-65
2022/06/08 00:20:35;;;;;;;20.60;18.67;;;14.20;99.90;;;;;;5067382;28;20836;-66
2022/06/08 00:23:04;;;;;;;19.63;18.27;;;14.20;99.90;;;;;;5076459;28;20464;-66
2022/06/08 00:25:31;;;;;;;23.43;21.37;;;14.30;99.90;;;;;;5079289;28;20490;-65
2022/06/08 00:27:58;;;;;;;22.37;20.40;;;14.30;99.90;;;;;;5068696;28;20982;-66
2022/06/08 00:30:26;;;;;;;23.60;21.60;;;14.30;99.90;;;;;;5074912;28;20459;-66
2022/06/08 00:32:53;;;;;;;23.23;21.17;;;14.40;99.90;;;;;;5067014;28;20461;-66
2022/06/08 00:35:20;;;;;;;22.83;20.83;;;14.40;99.90;;;;;;5071094;28;20451;-66
2022/06/08 00:37:49;;;;;;;24.23;21.80;;;14.50;99.90;;;;;;5072449;28;20490;-65
2022/06/08 00:40:20;;;;;;;23.77;21.73;;;14.50;99.90;;;;;;5065008;28;20482;-65
2022/06/08 00:42:47;;;;;;;23.67;21.37;;;14.50;99.90;;;;;;5067675;28;20820;-66
2022/06/08 00:45:18;;;;;;;22.40;20.50;;;14.50;99.90;;;;;;5069304;28;20992;-65
2022/06/08 00:47:48;;;;;;;22.63;20.73;;;14.50;99.90;;;;;;5073943;28;20818;-66
2022/06/08 00:50:20;;;;;;;22.03;19.87;;;14.50;99.90;;;;;;5074225;28;20472;-65
2022/06/08 00:52:48;;;;;;;22.87;20.57;;;14.50;99.90;;;;;;5070999;28;20544;-66
2022/06/08 00:55:21;;;;;;;22.17;20.00;;;14.50;99.90;;;;;;5062927;28;20460;-65
2022/06/08 00:57:51;;;;;;;22.30;20.60;;;14.40;99.90;;;;;;5070698;28;20462;-66
2022/06/08 01:00:22;;;;;;;23.47;21.10;;;14.50;99.90;;;;;;5069494;28;20544;-65
2022/06/08 01:02:48;;;;;;;21.50;19.67;;;14.50;99.90;;;;;;5071801;28;20467;-66
2022/06/08 01:05:22;;;;;;;22.57;20.67;;;14.40;99.90;;;;;;5068441;28;20486;-66
2022/06/08 01:07:51;;;;;;;21.50;19.60;;;14.40;99.90;;;;;;5067386;28;20842;-66
2022/06/08 01:10:22;;;;;;;21.10;19.03;;;14.40;99.90;;;;;;5070876;28;20469;-66
2022/06/08 01:12:49;;;;;;;21.03;19.53;;;14.30;99.90;;;;;;5054322;28;20519;-66
2022/06/08 01:15:20;;;;;;;21.47;19.73;;;14.30;99.90;;;;;;5073342;28;20485;-66
2022/06/08 01:17:48;;;;;;;22.23;19.70;;;14.30;99.90;;;;;;5082479;28;20466;-66
2022/06/08 01:20:17;;;;;;;21.03;19.37;;;14.20;99.90;;;;;;5065784;28;20995;-65
2022/06/08 01:22:45;;;;;;;21.80;20.00;;;14.10;99.90;;;;;;5069534;28;20484;-66
2022/06/08 01:25:15;;;;;;;30.67;21.00;;;13.90;99.90;;;;;;5062128;28;20986;-66
2022/06/08 01:28:03;;;;;;;20.60;19.10;;;13.80;99.90;;;;;;5069353;28;20546;-66
2022/06/08 01:30:41;;;;;;;19.70;18.40;;;13.80;99.90;;;;;;5069772;28;20463;-66
2022/06/08 01:33:46;;;;;;;21.73;19.97;;;13.80;99.90;;;;;;5070901;28;20569;-65
2022/06/08 01:36:48;;;;;;;21.70;19.73;;;13.80;99.90;;;;;;5070491;28;20850;-65
2022/06/08 01:39:27;;;;;;;21.43;19.87;;;13.80;99.90;;;;;;5071239;28;20496;-65
2022/06/08 01:42:12;;;;;;;21.07;19.57;;;13.70;99.90;;;;;;5076192;28;20553;-66
2022/06/08 01:47:41;;;;;;;20.37;18.63;;;13.70;99.90;;;;;;5069761;28;21000;-65
2022/06/08 01:50:14;;;;;;;19.60;18.13;;;13.70;99.90;;;;;;5079141;28;21206;-67
2022/06/08 01:52:52;;;;;;;19.93;18.33;;;13.70;99.90;;;;;;5063549;28;20469;-66
2022/06/08 01:55:27;;;;;;;19.63;18.03;;;13.60;99.90;;;;;;5074964;28;20479;-68
2022/06/08 01:58:03;;;;;;;19.80;18.53;;;13.60;99.90;;;;;;5065543;28;20462;-68
2022/06/08 02:00:33;;;;;;;19.53;18.03;;;13.50;99.90;;;;;;5082492;28;21102;-68
2022/06/08 02:03:08;;;;;;;20.93;18.80;;;13.60;99.90;;;;;;5069725;28;20549;-68
2022/06/08 02:05:41;;;;;;;18.83;17.53;;;13.60;99.90;;;;;;5074899;28;20484;-68
2022/06/08 02:08:16;;;;;;;19.93;18.10;;;13.60;99.90;;;;;;5068572;28;20462;-69
2022/06/08 02:10:54;;;;;;;19.80;18.40;;;13.60;99.90;;;;;;5059585;28;20457;-68
2022/06/08 02:13:28;;;;;;;20.40;18.50;;;13.50;99.90;;;;;;5077089;28;20902;-66
2022/06/08 02:16:01;;;;;;;19.27;17.77;;;13.50;99.90;;;;;;5076649;28;20454;-66
2022/06/08 02:18:32;;;;;;;19.73;18.13;;;13.50;99.90;;;;;;5069061;28;20545;-66
2022/06/08 02:21:03;;;;;;;20.07;18.30;;;13.50;99.90;;;;;;5077875;28;20543;-65
2022/06/08 02:23:40;;;;;;;19.50;17.87;;;13.50;99.90;;;;;;5068753;28;20965;-67
2022/06/08 02:26:13;;;;;;;20.30;18.53;;;13.60;99.90;;;;;;5066690;28;20466;-65
2022/06/08 02:28:43;;;;;;;19.43;18.10;;;13.50;99.90;;;;;;5071924;28;20500;-66
2022/06/08 02:31:15;;;;;;;19.43;17.97;;;13.50;99.90;;;;;;5074832;28;20821;-65
2022/06/08 02:36:36;;;;;;;18.03;16.80;;;13.40;99.90;;;;;;5078213;28;20818;-66
2022/06/08 02:39:08;;;;;;;20.60;18.83;;;13.30;99.90;;;;;;5063950;28;20465;-66
2022/06/08 02:41:40;;;;;;;20.43;19.13;;;13.30;99.90;;;;;;5065258;28;20488;-66
2022/06/08 02:44:12;;;;;;;20.83;18.87;;;13.30;99.90;;;;;;5076602;28;20541;-65
2022/06/08 02:46:46;;;;;;;19.47;18.07;;;13.40;99.90;;;;;;5071181;28;20455;-66
2022/06/08 02:49:13;;;;;;;19.43;17.87;;;13.40;99.90;;;;;;5066573;28;20458;-66
2022/06/08 02:51:46;;;;;;;19.10;17.80;;;13.50;99.90;;;;;;5074853;28;20454;-65
2022/06/08 02:54:17;;;;;;;18.97;17.37;;;13.50;99.90;;;;;;5067912;28;20462;-66
2022/06/08 02:56:56;;;;;;;18.27;16.77;;;13.60;99.90;;;;;;5072160;28;20965;-65
2022/06/08 02:59:27;;;;;;;19.23;17.37;;;13.60;99.90;;;;;;5072137;28;20459;-66
2022/06/08 03:02:00;;;;;;;22.37;17.10;;;13.60;99.90;;;;;;5064156;28;20852;-66
2022/06/08 03:04:32;;;;;;;18.87;17.27;;;13.60;99.90;;;;;;5074713;28;20514;-66
2022/06/08 03:07:04;;;;;;;17.53;16.33;;;13.60;99.90;;;;;;5068938;28;20486;-67
2022/06/08 03:09:32;;;;;;;19.23;17.83;;;13.60;99.90;;;;;;5074502;28;20453;-67
2022/06/08 03:12:06;;;;;;;19.50;17.60;;;13.60;99.90;;;;;;5057814;28;20459;-65
2022/06/08 03:14:34;;;;;;;19.50;17.80;;;13.60;99.90;;;;;;5075355;28;21447;-67
2022/06/08 03:17:04;;;;;;;19.87;17.80;;;13.60;99.90;;;;;;5068024;28;20466;-67
2022/06/08 03:19:33;;;;;;;25.77;18.50;;;13.60;99.90;;;;;;5073934;28;20695;-66
2022/06/08 03:22:00;;;;;;;17.80;16.40;;;13.60;99.90;;;;;;5073045;28;20483;-66
2022/06/08 03:24:29;;;;;;;19.77;17.93;;;13.60;99.90;;;;;;5069794;28;20515;-66
2022/06/08 03:26:58;;;;;;;20.17;18.33;;;13.50;99.90;;;;;;5064073;28;20456;-66
2022/06/08 03:29:28;;;;;;;20.40;18.87;;;13.50;99.90;;;;;;5063368;28;20836;-66
2022/06/08 03:31:55;;;;;;;20.17;18.40;;;13.50;99.90;;;;;;5065335;28;20465;-65
2022/06/08 03:34:22;;;;;;;18.80;17.30;;;13.50;99.90;;;;;;5075791;28;20455;-65
2022/06/08 03:36:49;;;;;;;19.60;17.90;;;13.40;99.90;;;;;;5065069;28;20463;-67
2022/06/08 03:39:17;;;;;;;19.30;17.80;;;13.40;99.90;;;;;;5064653;28;20828;-67
2022/06/08 03:41:45;;;;;;;21.20;18.60;;;13.50;99.90;;;;;;5073663;28;20489;-66
2022/06/08 03:44:12;;;;;;;29.03;19.87;;;13.50;99.90;;;;;;5072661;28;20463;-66
2022/06/08 03:46:44;;;;;;;20.80;18.63;;;13.50;99.90;;;;;;5069852;28;20450;-65
2022/06/08 03:49:12;;;;;;;23.50;19.07;;;13.50;99.90;;;;;;5079943;28;20746;-67
2022/06/08 03:51:40;;;;;;;22.07;19.77;;;13.60;99.90;;;;;;5067857;28;20466;-66
2022/06/08 03:54:12;;;;;;;24.53;19.10;;;13.60;99.90;;;;;;5076378;28;20466;-67
2022/06/08 03:56:43;;;;;;;20.80;18.90;;;13.70;99.90;;;;;;5070819;28;20476;-67
2022/06/08 03:59:10;;;;;;;21.60;17.93;;;13.80;99.90;;;;;;5062692;28;20457;-66
2022/06/08 04:01:37;;;;;;;18.87;17.20;;;13.90;99.90;;;;;;5064358;28;20494;-67
2022/06/08 04:04:05;;;;;;;21.90;18.13;;;14.00;99.90;;;;;;5044465;28;21555;-66
2022/06/08 04:06:32;;;;;;;19.47;17.90;;;14.10;99.90;;;;;;5051992;28;20482;-66
2022/06/08 04:08:59;;;;;;;19.67;18.03;;;14.10;99.90;;;;;;5069201;28;20458;-66
2022/06/08 04:11:26;;;;;;;19.43;17.70;;;14.20;99.90;;;;;;5067728;28;20464;-67
2022/06/08 04:13:54;;;;;;;18.83;17.13;;;14.30;99.90;;;;;;5055096;28;20478;-66
2022/06/08 04:16:20;;;;;;;20.10;17.23;;;14.30;99.90;;;;;;5043781;28;20804;-66
2022/06/08 04:18:48;;;;;;;18.20;16.50;;;14.30;99.90;;;;;;5042081;28;20487;-65
2022/06/08 04:21:17;;;;;;;17.43;16.30;;;14.30;99.90;;;;;;5044349;28;20553;-66
2022/06/08 04:23:46;;;;;;;18.77;16.87;;;14.30;99.90;;;;;;5042492;28;20458;-65
2022/06/08 04:26:15;;;;;;;21.73;16.73;;;14.30;99.90;;;;;;5042084;28;20470;-67
2022/06/08 04:28:42;;;;;;;18.77;16.80;;;14.40;99.90;;;;;;5042856;28;20467;-67
2022/06/08 04:31:24;;;;;;;19.73;17.37;;;14.40;99.90;;;;;;5041943;28;20831;-66
2022/06/08 04:33:53;;;;;;;20.03;15.20;;;14.50;99.90;;;;;;5042891;28;20498;-67
2022/06/08 04:36:22;;;;;;;16.37;14.80;;;14.70;99.90;;;;;;5042344;28;20939;-66
2022/06/08 04:38:48;;;;;;;17.70;15.83;;;14.70;99.90;;;;;;5042941;28;20854;-67
2022/06/08 04:41:16;;;;;;;19.77;15.30;;;14.80;99.90;;;;;;5042844;28;20486;-66
2022/06/08 04:43:44;;;;;;;19.23;16.30;;;14.90;99.90;;;;;;5041552;28;20562;-65
2022/06/08 04:46:15;;;;;;;19.10;15.80;;;15.00;99.90;;;;;;5041336;28;20459;-67
2022/06/08 04:48:43;;;;;;;16.03;14.80;;;15.10;99.90;;;;;;5042669;28;20867;-66
2022/06/08 04:51:10;;;;;;;18.50;14.60;;;15.20;99.90;;;;;;5042366;28;21006;-66
2022/06/08 04:53:39;;;;;;;16.57;14.87;;;15.40;99.90;;;;;;5043340;28;21038;-67
2022/06/08 04:56:06;;;;;;;16.00;14.70;;;15.50;99.90;;;;;;5043923;28;20784;-67
2022/06/08 04:58:33;;;;;;;18.33;14.43;;;15.60;99.90;;;;;;5042526;28;20836;-67
2022/06/08 05:01:00;;;;;;;17.27;14.97;;;15.70;99.90;;;;;;5041848;28;20498;-66
2022/06/08 05:03:27;;;;;;;20.50;14.87;;;15.90;99.90;;;;;;5041877;28;21086;-65
2022/06/08 05:05:54;;;;;;;17.03;14.73;;;16.00;99.90;;;;;;5040282;28;20482;-67
2022/06/08 05:08:23;;;;;;;19.33;13.63;;;16.10;99.90;;;;;;5044029;28;21130;-66
2022/06/08 05:10:52;;;;;;;15.80;14.30;;;16.20;99.90;;;;;;5044162;28;20466;-67
2022/06/08 05:13:20;;;;;;;14.40;13.30;;;16.30;99.90;;;;;;5046665;28;20462;-68
2022/06/08 05:15:49;;;;;;;19.00;13.70;;;16.40;99.90;;;;;;5046062;28;20501;-66
2022/06/08 05:18:18;;;;;;;14.47;13.13;;;16.40;99.90;;;;;;5046878;28;20486;-66
2022/06/08 05:20:46;;;;;;;13.50;12.33;;;16.50;99.90;;;;;;5046450;28;20502;-65
2022/06/08 05:23:18;;;;;;;13.23;12.23;;;16.60;99.90;;;;;;5046242;28;20467;-66
2022/06/08 05:25:46;;;;;;;14.30;12.03;;;16.60;99.90;;;;;;5042551;28;20470;-67
2022/06/08 05:28:14;;;;;;;12.60;11.70;;;16.70;99.90;;;;;;5045427;28;20521;-67
2022/06/08 05:30:57;;;;;;;12.93;11.60;;;16.70;99.90;;;;;;5043924;28;20460;-67
2022/06/08 05:33:24;;;;;;;12.70;11.43;;;16.90;99.90;;;;;;5044899;28;22562;-67
2022/06/08 05:35:51;;;;;;;11.97;11.03;;;17.00;99.90;;;;;;5043540;28;20464;-67
2022/06/08 05:38:18;;;;;;;14.27;12.00;;;17.10;99.90;;;;;;5045132;28;20458;-66
2022/06/08 05:40:45;;;;;;;21.40;11.23;;;17.10;99.90;;;;;;5045738;28;20505;-66
2022/06/08 05:43:15;;;;;;;15.80;12.00;;;17.20;99.90;;;;;;5045749;28;20464;-68
2022/06/08 05:45:42;;;;;;;15.37;13.87;;;17.40;99.90;;;;;;5045070;28;20467;-66
2022/06/08 05:48:10;;;;;;;12.53;11.43;;;17.50;99.90;;;;;;5045611;28;20571;-67
2022/06/08 05:50:38;;;;;;;13.27;11.97;;;17.60;99.90;;;;;;5045363;28;20466;-67
2022/06/08 05:53:06;;;;;;;14.20;12.60;;;17.80;99.90;;;;;;5044982;28;20478;-67
2022/06/08 05:55:33;;;;;;;21.23;12.13;;;17.80;99.90;;;;;;5044538;28;21017;-67
2022/06/08 05:58:00;;;;;;;12.33;11.30;;;17.80;99.90;;;;;;5045570;28;20475;-67
2022/06/08 06:00:30;;;;;;;12.70;11.67;;;17.90;99.90;;;;;;5044659;28;20465;-66
2022/06/08 06:02:58;;;;;;;16.57;12.97;;;18.00;99.90;;;;;;5041145;28;20884;-66
2022/06/08 06:05:29;;;;;;;13.43;12.10;;;18.20;99.90;;;;;;5048045;28;20506;-67
2022/06/08 06:07:57;;;;;;;14.27;12.37;;;18.30;99.90;;;;;;5061796;28;20487;-67
2022/06/08 06:10:25;;;;;;;19.13;12.70;;;18.40;99.90;;;;;;5057345;28;20491;-67
2022/06/08 06:12:53;;;;;;;16.67;12.97;;;18.60;99.90;;;;;;5041712;28;20484;-68
2022/06/08 06:15:20;;;;;;;15.17;13.60;;;18.70;99.90;;;;;;5040108;28;20491;-68
2022/06/08 06:17:49;;;;;;;15.20;13.00;;;18.80;99.90;;;;;;5043416;28;20468;-66
2022/06/08 06:20:16;;;;;;;17.27;13.00;;;18.80;99.90;;;;;;5042862;28;20471;-66
2022/06/08 06:22:43;;;;;;;13.40;12.30;;;19.00;99.90;;;;;;5041450;28;20500;-67
2022/06/08 06:25:11;;;;;;;13.93;12.60;;;19.30;99.90;;;;;;5042204;28;20455;-66
2022/06/08 06:27:38;;;;;;;14.00;12.63;;;19.50;99.90;;;;;;5042482;28;20513;-67
2022/06/08 06:30:07;;;;;;;14.17;12.87;;;19.50;99.90;;;;;;5042428;28;20490;-67
2022/06/08 06:32:36;;;;;;;14.23;13.10;;;19.60;99.90;;;;;;5043229;28;20466;-66
2022/06/08 06:35:08;;;;;;;15.80;13.40;;;19.80;99.90;;;;;;5042591;28;20469;-67
2022/06/08 06:37:35;;;;;;;14.80;13.50;;;19.80;99.90;;;;;;5043477;28;20557;-68
2022/06/08 06:40:02;;;;;;;15.03;13.97;;;19.90;99.90;;;;;;5041571;28;20493;-67
2022/06/08 06:42:32;;;;;;;15.10;14.10;;;19.80;99.90;;;;;;5042844;28;20481;-69
2022/06/08 06:44:59;;;;;;;15.37;14.27;;;19.90;99.90;;;;;;5042051;28;20529;-67
2022/06/08 06:47:26;;;;;;;16.13;14.83;;;19.90;99.90;;;;;;5042806;28;20467;-68
2022/06/08 06:49:54;;;;;;;15.43;14.23;;;20.00;99.90;;;;;;5041977;28;21154;-68
2022/06/08 06:52:22;;;;;;;15.63;14.40;;;20.10;99.90;;;;;;5046948;28;21012;-67
2022/06/08 06:54:49;;;;;;;15.50;14.30;;;19.90;99.90;;;;;;5036336;28;21179;-67
2022/06/08 06:57:16;;;;;;;15.50;14.47;;;19.90;99.90;;;;;;5034495;28;20466;-67
2022/06/08 06:59:43;;;;;;;16.93;14.33;;;20.00;99.90;;;;;;5036736;28;21028;-67
2022/06/08 07:02:14;;;;;;;15.63;14.20;;;20.00;99.90;;;;;;5034615;28;20872;-68
2022/06/08 07:04:41;;;;;;;16.23;14.80;;;19.80;99.90;;;;;;5038063;28;20488;-68
2022/06/08 07:07:09;;;;;;;15.33;13.70;;;19.90;99.90;;;;;;5034608;28;20512;-67
2022/06/08 07:09:37;;;;;;;15.20;13.97;;;20.10;99.90;;;;;;5033640;28;22494;-67
2022/06/08 07:12:05;;;;;;;15.50;14.50;;;20.20;99.90;;;;;;5031616;28;20478;-69
2022/06/08 07:14:33;;;;;;;14.40;13.50;;;20.20;99.90;;;;;;5034843;28;20652;-67
2022/06/08 07:17:00;;;;;;;16.13;14.47;;;20.10;99.90;;;;;;5032622;28;20459;-67
2022/06/08 07:19:27;;;;;;;15.27;14.07;;;20.10;99.90;;;;;;5035596;28;20843;-69
2022/06/08 07:21:54;;;;;;;15.03;13.80;;;20.10;99.90;;;;;;5034533;28;20499;-66
2022/06/08 07:24:30;;;;;;;15.23;14.13;;;20.10;99.90;;;;;;5036551;28;21006;-66
2022/06/08 07:26:58;;;;;;;14.23;13.33;;;20.20;99.90;;;;;;5035729;28;20475;-68
2022/06/08 07:29:25;;;;;;;13.50;12.80;;;20.30;99.90;;;;;;5035632;28;21082;-69
2022/06/08 07:31:52;;;;;;;14.47;13.57;;;20.60;99.90;;;;;;5037406;28;21626;-69
2022/06/08 07:34:20;;;;;;;16.70;14.03;;;20.70;99.90;;;;;;5035194;28;20462;-68
2022/06/08 07:36:47;;;;;;;15.30;13.70;;;20.60;99.90;;;;;;5036514;28;21102;-67
2022/06/08 07:39:15;;;;;;;14.30;13.50;;;20.70;99.90;;;;;;5035923;28;20471;-68
2022/06/08 07:41:43;;;;;;;15.10;13.80;;;21.00;99.90;;;;;;5036776;28;20548;-67
2022/06/08 07:44:11;;;;;;;15.70;13.73;;;20.90;99.90;;;;;;5036480;28;20933;-69
2022/06/08 07:46:38;;;;;;;14.30;13.40;;;20.90;99.90;;;;;;5036611;28;20463;-68
2022/06/08 07:51:53;;;;;;;14.90;13.30;;;21.20;99.90;;;;;;5035514;28;20597;-67
2022/06/08 07:54:22;;;;;;;15.03;13.60;;;21.50;99.90;;;;;;5035804;28;20976;-67
2022/06/08 07:56:49;;;;;;;14.20;13.50;;;21.80;99.90;;;;;;5037052;28;20507;-67
2022/06/08 07:59:18;;;;;;;14.20;13.13;;;21.90;99.90;;;;;;5035353;28;20469;-68
2022/06/08 08:01:44;;;;;;;14.87;13.50;;;22.00;99.90;;;;;;5035222;28;20510;-67
2022/06/08 08:04:11;;;;;;;15.20;13.87;;;22.20;99.90;;;;;;5036908;28;20850;-68
2022/06/08 08:06:38;;;;;;;15.70;14.67;;;22.20;99.90;;;;;;5036358;28;20461;-66
2022/06/08 08:09:09;;;;;;;15.10;14.10;;;22.30;99.90;;;;;;5035404;28;20468;-67
2022/06/08 08:11:36;;;;;;;14.83;13.93;;;22.60;99.90;;;;;;5054799;28;20474;-69
2022/06/08 08:14:03;;;;;;;15.97;15.03;;;23.40;99.90;;;;;;5057941;28;21079;-67
2022/06/08 08:16:32;;;;;;;15.83;14.90;;;23.90;99.90;;;;;;5062153;28;20495;-67
2022/06/08 08:19:00;;;;;;;18.37;14.83;;;24.50;99.90;;;;;;5063794;28;20501;-67
2022/06/08 08:21:26;;;;;;;16.17;15.27;;;24.80;99.90;;;;;;5046090;28;21026;-68
2022/06/08 08:23:53;;;;;;;16.10;14.70;;;24.50;99.90;;;;;;5035884;28;20465;-68
2022/06/08 08:26:20;;;;;;;15.33;14.50;;;24.40;99.90;;;;;;5035753;28;21217;-69
2022/06/08 08:28:47;;;;;;;15.40;14.50;;;24.80;99.90;;;;;;5036077;28;20787;-67
2022/06/08 08:31:13;;;;;;;15.70;14.60;;;25.00;99.90;;;;;;5035835;28;21083;-69
2022/06/08 08:33:41;;;;;;;15.50;14.47;;;25.10;99.90;;;;;;5036062;28;20463;-68
2022/06/08 08:36:10;;;;;;;16.93;15.83;;;25.40;99.90;;;;;;5036016;28;20486;-69
2022/06/08 08:38:36;;;;;;;16.40;14.93;;;25.20;99.90;;;;;;5035710;28;20570;-67
2022/06/08 08:42:20;;;;;;;15.60;14.60;;;25.00;99.90;;;;;;5035489;28;20907;-67
2022/06/08 08:43:52;;;;;;;16.20;15.13;;;25.40;99.90;;;;;;5036115;28;20466;-66
2022/06/08 08:46:28;;;;;;;16.00;14.80;;;25.50;99.90;;;;;;5038355;28;20471;-66
2022/06/08 08:49:05;;;;;;;15.90;14.90;;;25.00;99.90;;;;;;5039927;28;20466;-67
2022/06/08 08:51:39;;;;;;;16.10;15.03;;;25.10;99.90;;;;;;5039290;28;20458;-67
2022/06/08 08:54:19;;;;;;;16.40;15.30;;;25.40;99.90;;;;;;5039821;28;20476;-68
2022/06/08 08:56:46;;;;;;;16.53;15.60;;;25.70;99.90;;;;;;5039850;28;21001;-67
2022/06/08 08:59:15;;;;;;;16.97;15.70;;;26.00;99.90;;;;;;5037260;28;20479;-67
2022/06/08 09:01:43;;;;;;;17.10;16.20;;;26.20;99.90;;;;;;5037500;28;20468;-67
2022/06/08 09:04:25;;;;;;;16.47;15.50;;;26.50;99.90;;;;;;5039227;28;20617;-68
2022/06/08 09:06:52;;;;;;;16.70;15.40;;;26.80;99.90;;;;;;5039051;28;20462;-68
2022/06/08 09:09:23;;;;;;;15.93;14.93;;;26.60;99.90;;;;;;5037846;28;20889;-69
2022/06/08 09:11:50;;;;;;;16.13;15.33;;;25.90;99.90;;;;;;5038595;28;20851;-69
2022/06/08 09:14:22;;;;;;;15.70;14.80;;;25.40;99.90;;;;;;5037134;28;20469;-70
2022/06/08 09:16:50;;;;;;;15.90;14.90;;;25.20;99.90;;;;;;5041436;28;20500;-68
2022/06/08 09:19:31;;;;;;;15.83;14.93;;;24.50;99.90;;;;;;5035330;28;20454;-68
2022/06/08 09:22:18;;;;;;;15.47;14.37;;;24.00;99.90;;;;;;5037292;28;20504;-68
2022/06/08 09:24:48;;;;;;;16.87;15.43;;;24.10;99.90;;;;;;5037782;28;20466;-68
2022/06/08 09:27:22;;;;;;;16.27;14.97;;;23.80;99.90;;;;;;5038937;28;20458;-69
2022/06/08 09:29:56;;;;;;;15.30;14.40;;;23.50;99.90;;;;;;5037483;28;20515;-68
2022/06/08 09:32:29;;;;;;;16.10;14.90;;;23.00;99.90;;;;;;5039153;28;20463;-67
2022/06/08 09:35:00;;;;;;;26.60;19.00;;;22.40;99.90;;;;;;5034944;28;20471;-67
2022/06/08 09:37:28;;;;;;;32.53;29.13;;;21.70;99.90;;;;;;5034955;28;20579;-66
2022/06/08 09:39:58;;;;;;;39.03;29.83;;;21.00;99.90;;;;;;5035062;28;20455;-66
2022/06/08 09:42:46;;;;;;;30.57;28.00;;;19.90;99.90;;;;;;5038832;28;20483;-67
2022/06/08 09:45:30;;;;;;;34.30;26.90;;;19.10;99.90;;;;;;5039048;28;20474;-67
2022/06/08 09:53:49;;;;;;;23.80;21.60;;;18.30;99.90;;;;;;5037672;28;20461;-68
2022/06/08 09:56:30;;;;;;;22.50;20.37;;;18.30;99.90;;;;;;5036331;28;20469;-67
2022/06/08 09:59:11;;;;;;;21.10;18.90;;;18.30;99.90;;;;;;5037038;28;20462;-67
2022/06/08 10:01:42;;;;;;;19.07;17.30;;;18.20;99.90;;;;;;5037139;28;20481;-67
2022/06/08 10:04:23;;;;;;;21.80;17.20;;;18.30;99.90;;;;;;5035467;28;20479;-67
2022/06/08 10:06:59;;;;;;;16.57;14.83;;;18.30;99.90;;;;;;5035681;28;20503;-67
2022/06/08 10:09:33;;;;;;;16.27;13.87;;;18.50;99.90;;;;;;5036872;28;20475;-68
2022/06/08 10:12:12;;;;;;;15.10;12.97;;;18.40;99.90;;;;;;5038221;28;20467;-67
2022/06/08 10:14:44;;;;;;;12.37;11.30;;;18.50;99.90;;;;;;5034299;28;21053;-69
2022/06/08 10:17:18;;;;;;;14.17;10.97;;;18.70;99.90;;;;;;5039240;28;20462;-67
2022/06/08 10:19:55;;;;;;;13.10;11.63;;;18.90;99.90;;;;;;5038885;28;20560;-69
2022/06/08 10:22:28;;;;;;;11.40;10.50;;;19.10;99.90;;;;;;5037864;28;20490;-68
2022/06/08 10:25:00;;;;;;;12.70;11.40;;;19.30;99.90;;;;;;5038313;28;20474;-68
2022/06/08 10:27:33;;;;;;;15.10;13.50;;;19.40;99.90;;;;;;5037467;28;20989;-67
2022/06/08 10:30:11;;;;;;;14.20;12.73;;;19.30;99.90;;;;;;5037344;28;20883;-66
2022/06/08 10:32:43;;;;;;;14.73;13.50;;;19.50;99.90;;;;;;5035617;28;21761;-65
2022/06/08 10:35:21;;;;;;;14.93;13.40;;;19.40;99.90;;;;;;5036183;28;20471;-67
2022/06/08 10:37:50;;;;;;;15.67;14.17;;;19.30;99.90;;;;;;5058746;28;20454;-65
2022/06/08 10:40:20;;;;;;;16.63;13.97;;;19.10;99.90;;;;;;5059145;28;21013;-66
2022/06/08 10:42:48;;;;;;;15.43;13.80;;;18.80;99.90;;;;;;5036573;28;20522;-66
2022/06/08 10:45:47;;;;;;;13.97;12.73;;;18.90;99.90;;;;;;5035204;28;20459;-67
2022/06/08 10:48:43;;;;;;;13.43;12.30;;;19.00;99.90;;;;;;5035231;28;20455;-67
2022/06/08 10:51:39;;;;;;;15.10;11.60;;;19.20;99.90;;;;;;5034595;28;20470;-66
2022/06/08 10:54:54;;;;;;;12.37;11.23;;;19.20;99.90;;;;;;5034101;28;20533;-66
2022/06/08 10:57:49;;;;;;;11.60;10.60;;;19.30;99.90;;;;;;5034647;28;21012;-67
2022/06/08 11:00:27;;;;;;;12.03;9.97;;;19.30;99.90;;;;;;5035699;28;20904;-66
2022/06/08 11:03:01;;;;;;;10.30;9.60;;;19.30;99.90;;;;;;5033783;28;20494;-66
2022/06/08 11:05:34;;;;;;;11.70;10.27;;;19.20;99.90;;;;;;5035414;28;20494;-67
2022/06/08 11:08:17;;;;;;;14.13;12.70;;;19.00;99.90;;;;;;5033047;28;20462;-66
2022/06/08 11:11:00;;;;;;;17.57;13.80;;;18.80;99.90;;;;;;5034532;28;20463;-67
2022/06/08 11:13:33;;;;;;;13.93;12.73;;;18.40;99.90;;;;;;5034564;28;20794;-65
2022/06/08 11:16:15;;;;;;;12.70;11.60;;;18.40;99.90;;;;;;5032885;28;20440;-66
2022/06/08 11:18:46;;;;;;;14.93;11.67;;;18.30;99.90;;;;;;5032479;28;20467;-66
2022/06/08 11:21:42;;;;;;;13.60;12.40;;;18.30;99.90;;;;;;5032674;28;20833;-67
2022/06/08 11:24:24;;;;;;;13.07;11.73;;;18.20;99.90;;;;;;4997611;28;20530;-67
2022/06/08 11:27:25;;;;;;;12.70;11.60;;;18.30;99.90;;;;;;5032145;28;21005;-66
2022/06/08 11:29:53;;;;;;;11.90;11.00;;;18.30;99.90;;;;;;5032253;28;20550;-66
2022/06/08 11:32:42;;;;;;;12.67;11.30;;;18.10;99.90;;;;;;5032408;28;20576;-66
2022/06/08 11:35:56;;;;;;;12.13;11.07;;;18.30;99.90;;;;;;5032535;28;20838;-66
2022/06/08 11:38:40;;;;;;;11.67;10.77;;;18.40;99.90;;;;;;5032608;28;20451;-67
2022/06/08 11:41:37;;;;;;;12.30;11.37;;;18.40;99.90;;;;;;5032101;28;20474;-67
2022/06/08 11:44:17;;;;;;;11.17;10.37;;;18.30;99.90;;;;;;5032252;28;20487;-67
2022/06/08 11:46:46;;;;;;;12.57;11.57;;;18.40;99.90;;;;;;5032170;28;20533;-66
2022/06/08 11:49:30;;;;;;;13.37;12.30;;;18.50;99.90;;;;;;5031855;28;20455;-66
2022/06/08 11:51:58;;;;;;;15.27;13.77;;;18.50;99.90;;;;;;5031026;28;20510;-66
2022/06/08 11:54:27;;;;;;;15.23;13.70;;;18.50;99.90;;;;;;5032723;28;20556;-66
2022/06/08 11:57:04;;;;;;;15.60;14.00;;;18.40;99.90;;;;;;5031411;28;20448;-66
2022/06/08 11:59:36;;;;;;;16.77;15.20;;;18.40;99.90;;;;;;5031741;28;20773;-66
2022/06/08 12:02:20;;;;;;;17.03;15.53;;;18.50;99.90;;;;;;5032203;28;20862;-67
2022/06/08 12:08:18;;;;;;;19.30;17.60;;;18.30;99.90;;;;;;5030773;28;20554;-66
2022/06/08 12:10:45;;;;;;;17.97;16.83;;;18.00;99.90;;;;;;5031204;28;20443;-66
2022/06/08 12:13:20;;;;;;;16.83;15.17;;;18.10;99.90;;;;;;5031249;28;20601;-66
2022/06/08 12:15:51;;;;;;;16.90;15.60;;;18.30;99.90;;;;;;5031464;28;20497;-66
2022/06/08 12:18:37;;;;;;;16.13;15.00;;;18.50;99.90;;;;;;5032354;28;20915;-67
2022/06/08 12:21:12;;;;;;;16.70;15.33;;;18.50;99.90;;;;;;5032454;28;20463;-67
2022/06/08 12:23:41;;;;;;;31.53;15.87;;;18.40;99.90;;;;;;5032151;28;20486;-67
2022/06/08 12:26:18;;;;;;;17.10;15.37;;;18.30;99.90;;;;;;5032949;28;20470;-68
2022/06/08 12:28:51;;;;;;;17.93;15.47;;;18.30;99.90;;;;;;5032733;28;20466;-67
2022/06/08 12:31:27;;;;;;;17.30;15.60;;;18.20;99.90;;;;;;5033722;28;20470;-68
2022/06/08 12:33:54;;;;;;;17.10;15.57;;;18.10;99.90;;;;;;5034326;28;21029;-66
2022/06/08 12:36:24;;;;;;;15.83;14.90;;;18.30;99.90;;;;;;5033092;28;20845;-68
2022/06/08 12:39:03;;;;;;;15.73;14.43;;;18.30;99.90;;;;;;5033178;28;20473;-68
2022/06/08 12:41:43;;;;;;;17.47;15.80;;;18.60;99.90;;;;;;5034245;28;20467;-68
2022/06/08 12:44:17;;;;;;;16.57;15.40;;;18.50;99.90;;;;;;5032725;28;20567;-67
2022/06/08 12:46:53;;;;;;;17.87;16.27;;;18.20;99.90;;;;;;5031676;28;20859;-67
2022/06/08 12:49:22;;;;;;;18.33;16.70;;;18.30;99.90;;;;;;5033728;28;21126;-67
2022/06/08 12:51:53;;;;;;;17.77;16.60;;;18.30;99.90;;;;;;5033192;28;20459;-67
2022/06/08 12:54:24;;;;;;;18.80;17.27;;;18.30;99.90;;;;;;5033512;28;21044;-67
2022/06/08 12:56:53;;;;;;;19.50;18.00;;;18.30;99.90;;;;;;5033509;28;20650;-66
2022/06/08 12:59:21;;;;;;;19.27;17.50;;;18.30;99.90;;;;;;5034573;28;20494;-67
2022/06/08 13:01:49;;;;;;;18.43;17.20;;;18.40;99.90;;;;;;5033923;28;22456;-67
2022/06/08 13:04:19;;;;;;;17.60;16.50;;;18.20;99.90;;;;;;5033961;28;20523;-67
2022/06/08 13:06:46;;;;;;;17.73;16.73;;;18.30;99.90;;;;;;5033701;28;20471;-67
2022/06/08 13:09:16;;;;;;;20.87;17.63;;;18.10;99.90;;;;;;5031871;28;20495;-66